Time;durP1;ratioP1;P1;durP2;ratioP2;P2;SDS_P1;SDS_P2;PMS_P1;PMS_P2;Temp;Humidity;BMP_temperature;BMP_pressure;BME280_temperature;BME280_humidity;BME280_pressure;Samples;Min_cycle;Max_cycle;Signal;HPM_P1;HPM_P2
2023/10/08 00:01:50;;;;;;;9.73;1.70;;;;;;;9.73;100.00;101916.03;4954936;28;20233;-45
2023/10/08 00:04:18;;;;;;;7.82;1.33;;;;;;;9.70;100.00;101907.16;4955482;28;20206;-46
2023/10/08 00:06:45;;;;;;;7.32;1.65;;;;;;;9.70;100.00;101912.50;4955025;29;20179;-45
2023/10/08 00:09:11;;;;;;;8.25;1.42;;;;;;;9.76;100.00;101922.22;4953811;29;20657;-47
2023/10/08 00:11:37;;;;;;;2.58;0.82;;;;;;;9.72;100.00;101919.63;4954951;28;20187;-45
2023/10/08 00:14:08;;;;;;;10.52;1.25;;;;;;;9.61;100.00;101920.69;4955176;28;20210;-47
2023/10/08 00:16:34;;;;;;;1.77;0.75;;;;;;;9.67;100.00;101914.38;4953993;29;20171;-44
2023/10/08 00:19:07;;;;;;;8.10;1.23;;;;;;;9.67;100.00;101931.31;4954642;28;20189;-48
2023/10/08 00:21:34;;;;;;;5.63;1.35;;;;;;;9.67;100.00;101935.78;4954769;29;20657;-45
2023/10/08 00:24:02;;;;;;;5.63;1.33;;;;;;;9.69;100.00;101931.28;4954624;28;20278;-44
2023/10/08 00:26:32;;;;;;;9.85;1.63;;;;;;;9.72;100.00;101933.03;4954939;28;20190;-43
2023/10/08 00:29:00;;;;;;;4.47;1.30;;;;;;;9.62;100.00;101949.22;4953190;29;20187;-44
2023/10/08 00:31:31;;;;;;;6.38;1.25;;;;;;;9.65;100.00;101942.94;4954693;29;20669;-43
2023/10/08 00:33:57;;;;;;;3.20;1.00;;;;;;;9.66;100.00;101934.00;4954499;28;20289;-46
2023/10/08 00:36:23;;;;;;;8.07;2.00;;;;;;;9.59;100.00;101921.63;4969278;28;20630;-45
2023/10/08 00:39:00;;;;;;;4.68;1.50;;;;;;;9.60;100.00;101931.41;4954973;28;20572;-47
2023/10/08 00:41:28;;;;;;;6.97;1.70;;;;;;;9.61;100.00;101944.78;4954422;28;20183;-43
2023/10/08 00:43:56;;;;;;;7.30;2.35;;;;;;;9.61;100.00;101943.91;4954370;28;20210;-47
2023/10/08 00:46:25;;;;;;;2.88;1.38;;;;;;;9.58;100.00;101935.94;4954210;28;20273;-44
2023/10/08 00:48:56;;;;;;;2.50;1.30;;;;;;;9.60;100.00;101931.41;4952903;29;20190;-45
2023/10/08 00:53:59;;;;;;;6.75;1.98;;;;;;;9.60;100.00;101942.13;4949288;28;20306;-44
2023/10/08 00:57:16;;;;;;;2.28;0.82;;;;;;;9.60;100.00;101960.84;4934997;29;20177;-46
2023/10/08 00:59:16;;;;;;;4.18;1.05;;;;;;;9.62;100.00;101985.78;4958271;28;20262;-45
2023/10/08 01:01:51;;;;;;;6.97;1.35;;;;;;;9.53;100.00;102007.34;4968912;28;20528;-44
2023/10/08 01:04:26;;;;;;;8.27;1.63;;;;;;;9.54;100.00;101971.66;4947397;29;20216;-44
2023/10/08 01:07:01;;;;;;;5.90;1.45;;;;;;;9.48;100.00;101959.25;4952656;29;20601;-43
2023/10/08 01:09:37;;;;;;;7.68;1.40;;;;;;;9.44;100.00;101961.09;4953862;28;20639;-44
2023/10/08 01:12:15;;;;;;;4.78;1.00;;;;;;;9.51;100.00;101942.28;4952424;29;20560;-42
2023/10/08 01:14:46;;;;;;;1.55;0.80;;;;;;;9.44;100.00;101934.34;4950715;29;20190;-43
2023/10/08 01:17:14;;;;;;;3.10;1.00;;;;;;;9.45;100.00;101938.78;4953755;28;20197;-43
2023/10/08 01:19:42;;;;;;;2.85;1.10;;;;;;;9.48;100.00;101959.25;4952434;29;20199;-45
2023/10/08 01:22:10;;;;;;;1.77;0.98;;;;;;;9.48;100.00;101988.69;4952190;29;20241;-45
2023/10/08 01:24:36;;;;;;;4.70;1.10;;;;;;;9.42;100.00;101991.44;4952592;28;20206;-43
2023/10/08 01:27:04;;;;;;;4.97;1.20;;;;;;;9.41;100.00;101982.53;4952285;29;20190;-44
2023/10/08 01:29:31;;;;;;;4.97;1.00;;;;;;;9.44;100.00;101976.25;4952300;29;20530;-45
2023/10/08 01:31:58;;;;;;;4.45;1.20;;;;;;;9.41;100.00;101971.84;4953664;28;20387;-43
2023/10/08 01:34:30;;;;;;;4.88;1.30;;;;;;;9.34;100.00;101972.84;4952116;28;20699;-43
2023/10/08 01:37:01;;;;;;;3.03;0.90;;;;;;;9.41;100.00;101987.91;4953683;29;20190;-44
2023/10/08 01:39:27;;;;;;;5.82;1.15;;;;;;;9.36;100.00;101979.06;4951976;28;20179;-45
2023/10/08 01:41:52;;;;;;;3.50;1.10;;;;;;;9.33;100.00;101948.78;4952016;29;20558;-44
2023/10/08 01:44:18;;;;;;;2.65;1.00;;;;;;;9.36;100.00;101948.72;4953392;28;20229;-45
2023/10/08 01:46:45;;;;;;;6.88;1.55;;;;;;;9.27;100.00;101952.44;4953644;29;20557;-42
2023/10/08 01:49:15;;;;;;;8.75;1.63;;;;;;;9.14;100.00;101959.78;4953250;28;20175;-44
2023/10/08 01:51:46;;;;;;;2.40;1.08;;;;;;;9.20;100.00;101985.53;4951692;29;20229;-45
2023/10/08 01:54:14;;;;;;;3.08;1.08;;;;;;;9.14;100.00;101980.25;4953056;28;20726;-44
2023/10/08 01:56:41;;;;;;;2.53;1.20;;;;;;;9.18;100.00;101981.97;4951798;29;20293;-44
2023/10/08 01:59:13;;;;;;;4.15;1.13;;;;;;;9.12;100.00;101977.63;4951770;29;20175;-42
2023/10/08 02:01:39;;;;;;;1.88;1.10;;;;;;;9.15;100.00;101998.09;4951631;29;20171;-46
2023/10/08 02:04:09;;;;;;;3.70;1.10;;;;;;;9.12;100.00;102004.34;4953061;28;20710;-43
2023/10/08 02:06:35;;;;;;;3.75;0.93;;;;;;;9.07;100.00;101991.06;4952482;28;20206;-44
2023/10/08 02:09:07;;;;;;;2.83;1.27;;;;;;;9.06;100.00;101991.94;4951538;29;20214;-44
2023/10/08 02:11:50;;;;;;;3.83;1.00;;;;;;;8.99;100.00;101995.59;4952887;29;20182;-44
2023/10/08 02:14:17;;;;;;;5.32;1.40;;;;;;;8.87;100.00;101985.06;4953266;28;20674;-44
2023/10/08 02:16:44;;;;;;;4.30;0.80;;;;;;;8.92;100.00;101996.59;4953030;28;20233;-45
2023/10/08 02:19:10;;;;;;;2.50;0.95;;;;;;;8.90;100.00;101990.38;4952749;28;20174;-44
2023/10/08 02:21:39;;;;;;;1.67;0.90;;;;;;;8.95;100.00;102004.56;4953187;28;20167;-43
2023/10/08 02:24:07;;;;;;;2.33;0.90;;;;;;;8.85;100.00;102013.59;4952755;28;20501;-46
2023/10/08 02:26:34;;;;;;;4.78;1.10;;;;;;;8.86;100.00;102039.44;4951511;29;20249;-43
2023/10/08 02:29:10;;;;;;;2.17;1.00;;;;;;;8.81;100.00;102047.50;4952791;28;20602;-45
2023/10/08 02:31:40;;;;;;;4.63;1.00;;;;;;;8.81;100.00;102046.59;4953154;28;20728;-44
2023/10/08 02:34:09;;;;;;;4.97;1.20;;;;;;;8.88;100.00;102032.28;4953123;28;20202;-45
2023/10/08 02:36:40;;;;;;;2.45;1.30;;;;;;;8.92;100.00;102038.47;4952689;29;20230;-44
2023/10/08 02:39:13;;;;;;;2.72;1.23;;;;;;;9.00;100.00;102050.81;4951540;29;20523;-43
2023/10/08 02:41:45;;;;;;;3.25;1.15;;;;;;;8.97;100.00;102026.81;4952768;28;20629;-44
2023/10/08 02:44:12;;;;;;;5.90;1.40;;;;;;;8.99;100.00;102011.66;4943587;29;20681;-44
2023/10/08 02:46:47;;;;;;;4.68;1.15;;;;;;;9.04;100.00;102019.59;4952746;28;20174;-43
2023/10/08 02:49:20;;;;;;;4.15;1.10;;;;;;;8.82;100.00;102030.56;4952623;28;20201;-45
2023/10/08 02:51:46;;;;;;;6.43;1.25;;;;;;;8.86;100.00;102051.00;4952554;28;20199;-44
2023/10/08 02:54:17;;;;;;;3.13;1.35;;;;;;;8.89;100.00;102059.88;4951144;28;20550;-44
2023/10/08 02:56:57;;;;;;;3.25;1.40;;;;;;;8.89;100.00;102055.41;4952733;28;20163;-44
2023/10/08 02:59:24;;;;;;;4.20;1.20;;;;;;;8.90;100.00;102069.66;4952747;28;20181;-44
2023/10/08 03:01:53;;;;;;;5.13;1.63;;;;;;;8.92;100.00;102055.41;4951217;29;20253;-47
2023/10/08 03:04:18;;;;;;;3.28;1.13;;;;;;;8.88;100.00;102048.31;4952521;28;20205;-43
2023/10/08 03:06:54;;;;;;;5.95;1.48;;;;;;;8.93;100.00;102059.84;4951255;29;20183;-46
2023/10/08 03:09:23;;;;;;;5.85;0.98;;;;;;;8.90;100.00;102064.31;4952437;29;20201;-44
2023/10/08 03:11:50;;;;;;;3.88;1.38;;;;;;;8.84;100.00;102062.63;4952941;29;20660;-42
2023/10/08 03:14:23;;;;;;;3.88;1.00;;;;;;;8.85;100.00;102059.03;4950805;28;20677;-42
2023/10/08 03:16:52;;;;;;;2.08;1.15;;;;;;;8.52;100.00;102068.28;4952391;28;20191;-46
2023/10/08 03:19:19;;;;;;;2.92;0.90;;;;;;;8.55;100.00;102079.84;4970693;28;20206;-43
2023/10/08 03:21:51;;;;;;;6.68;1.05;;;;;;;8.54;100.00;102074.50;4954589;29;20183;-45
2023/10/08 03:24:29;;;;;;;2.35;1.27;;;;;;;8.53;100.00;102075.41;4954208;28;20218;-44
2023/10/08 03:29:43;;;;;;;6.20;1.52;;;;;;;8.23;100.00;102080.97;4954419;29;20162;-47
2023/10/08 03:32:17;;;;;;;4.00;1.50;;;;;;;8.09;100.00;102084.63;4954293;28;20597;-43
2023/10/08 03:34:48;;;;;;;4.85;1.70;;;;;;;8.08;100.00;102097.09;4955228;28;20194;-43
2023/10/08 03:37:29;;;;;;;4.05;1.52;;;;;;;8.14;100.00;102112.22;4955556;28;20186;-43
2023/10/08 03:40:22;;;;;;;4.18;1.52;;;;;;;8.19;100.00;102132.63;4955484;29;20179;-45
2023/10/08 03:42:49;;;;;;;4.13;1.38;;;;;;;8.07;100.00;102131.81;4955774;28;20665;-44
2023/10/08 03:45:22;;;;;;;4.28;1.35;;;;;;;7.89;100.00;102143.50;4955954;28;20645;-44
2023/10/08 03:48:06;;;;;;;4.63;1.58;;;;;;;8.01;100.00;102144.31;4953965;29;20159;-44
2023/10/08 03:50:43;;;;;;;6.78;1.88;;;;;;;7.87;100.00;102137.28;4955391;28;20665;-44
2023/10/08 03:53:11;;;;;;;3.92;1.23;;;;;;;7.94;100.00;102150.59;4955311;28;20230;-44
2023/10/08 03:55:40;;;;;;;3.38;1.50;;;;;;;7.88;100.00;102144.41;4954004;29;20364;-44
2023/10/08 03:58:29;;;;;;;2.95;1.60;;;;;;;7.86;100.00;102148.88;4955296;28;20610;-43
2023/10/08 04:01:08;;;;;;;3.67;1.38;;;;;;;7.84;100.00;102156.88;4955666;28;20159;-47
2023/10/08 04:03:57;;;;;;;3.97;1.17;;;;;;;7.71;100.00;102150.72;4955137;28;20240;-44
2023/10/08 04:06:22;;;;;;;5.55;1.33;;;;;;;7.80;100.00;102152.44;4955215;29;20182;-43
2023/10/08 04:11:35;;;;;;;3.33;1.50;;;;;;;7.84;100.00;102160.41;4955322;29;20250;-43
2023/10/08 04:14:04;;;;;;;4.60;1.10;;;;;;;7.89;100.00;102164.84;4955097;28;20302;-45
2023/10/08 04:16:31;;;;;;;6.70;1.52;;;;;;;7.83;100.00;102164.00;4955137;28;20388;-44
2023/10/08 04:18:57;;;;;;;7.60;1.77;;;;;;;7.91;100.00;102163.06;4954967;28;20182;-43
2023/10/08 04:21:29;;;;;;;4.55;1.63;;;;;;;7.92;100.00;102164.84;4954992;28;20556;-44
2023/10/08 04:23:57;;;;;;;5.68;1.33;;;;;;;7.79;100.00;102154.22;4955075;28;20289;-43
2023/10/08 04:26:25;;;;;;;5.60;1.35;;;;;;;7.87;100.00;102167.53;4954928;29;20170;-44
2023/10/08 04:28:57;;;;;;;3.97;1.50;;;;;;;7.89;100.00;102170.19;4953892;28;20202;-44
2023/10/08 04:31:28;;;;;;;3.58;1.42;;;;;;;7.96;100.00;102182.59;4953462;29;20203;-45
2023/10/08 04:34:00;;;;;;;4.93;1.40;;;;;;;7.91;100.00;102168.38;4954710;28;20221;-46
2023/10/08 04:36:26;;;;;;;7.78;1.75;;;;;;;7.85;100.00;102174.66;4954820;28;20253;-42
2023/10/08 04:38:54;;;;;;;5.82;1.60;;;;;;;7.81;100.00;102176.44;4954947;28;20330;-45
2023/10/08 04:41:27;;;;;;;4.82;1.33;;;;;;;7.85;100.00;102169.34;4954985;29;20171;-45
2023/10/08 04:43:55;;;;;;;4.88;1.88;;;;;;;7.89;100.00;102179.06;4954858;28;20285;-43
2023/10/08 04:49:07;;;;;;;6.47;1.30;;;;;;;7.94;100.00;102189.75;4954749;29;20175;-41
2023/10/08 04:51:43;;;;;;;2.42;1.50;;;;;;;7.83;100.00;102198.69;4954644;29;20302;-42
2023/10/08 04:54:16;;;;;;;4.32;1.45;;;;;;;7.89;100.00;102208.41;4954429;28;20236;-44
2023/10/08 04:56:43;;;;;;;5.22;1.35;;;;;;;7.97;100.00;102206.59;4954397;28;20222;-43
2023/10/08 04:59:11;;;;;;;2.95;1.50;;;;;;;8.10;100.00;102211.88;4954185;28;20171;-44
2023/10/08 05:01:47;;;;;;;5.55;1.70;;;;;;;8.11;100.00;102219.00;4953955;28;20266;-45
2023/10/08 05:04:26;;;;;;;2.78;1.50;;;;;;;8.13;100.00;102222.53;4944181;29;20198;-45
2023/10/08 05:07:01;;;;;;;4.38;1.60;;;;;;;8.08;100.00;102224.34;4954793;29;20214;-43
2023/10/08 05:09:39;;;;;;;5.13;1.40;;;;;;;7.94;100.00;102224.44;4952619;29;20268;-43
2023/10/08 05:15:21;;;;;;;6.18;2.53;;;;;;;7.98;100.00;102234.16;4954663;29;20253;-43
2023/10/08 05:28:36;;;;;;;6.85;1.48;;;;;;;8.13;100.00;102255.44;4953125;29;20179;-45
2023/10/08 05:31:31;;;;;;;4.88;1.13;;;;;;;8.09;100.00;102251.06;4953368;29;20598;-44
2023/10/08 05:34:14;;;;;;;3.70;1.42;;;;;;;7.79;100.00;102260.94;4952900;28;20206;-43
2023/10/08 05:41:51;;;;;;;4.28;1.90;;;;;;;7.47;100.00;102247.72;4953343;29;20227;-44
2023/10/08 05:49:36;;;;;;;3.72;1.50;;;;;;;7.38;100.00;102255.72;4953287;28;20191;-44
2023/10/08 06:00:21;;;;;;;9.10;1.83;;;;;;;7.35;100.00;102279.75;4953068;28;20190;-43
2023/10/08 06:07:48;;;;;;;4.00;1.50;;;;;;;7.32;100.00;102314.41;4952873;28;20226;-44
2023/10/08 06:13:13;;;;;;;6.75;1.60;;;;;;;7.30;100.00;102316.16;4952997;28;20603;-46
2023/10/08 06:18:26;;;;;;;6.50;1.70;;;;;;;7.36;100.00;102309.06;4952864;28;20162;-45
2023/10/08 06:20:54;;;;;;;2.78;1.52;;;;;;;7.43;100.00;102323.25;4953121;28;20559;-42
2023/10/08 06:23:22;;;;;;;4.30;1.70;;;;;;;7.37;100.00;102321.50;4952526;28;20198;-45
2023/10/08 06:25:58;;;;;;;5.25;1.77;;;;;;;7.45;100.00;102318.81;4952821;28;20277;-42
2023/10/08 06:28:26;;;;;;;3.58;1.40;;;;;;;7.56;100.00;102321.47;4952621;28;20182;-43
2023/10/08 06:30:56;;;;;;;3.80;1.63;;;;;;;7.65;100.00;102332.13;4952635;28;20206;-44
2023/10/08 06:33:25;;;;;;;2.10;1.17;;;;;;;7.91;100.00;102334.72;4952786;28;20209;-43
2023/10/08 06:36:25;;;;;;;3.20;1.52;;;;;;;8.09;100.00;102351.56;4952857;28;20273;-43
2023/10/08 06:38:44;;;;;;;2.05;1.42;;;;;;;8.20;100.00;102350.66;4952494;29;20642;-45
2023/10/08 06:41:17;;;;;;;5.32;1.92;;;;;;;8.32;100.00;102351.50;4952895;28;20171;-45
2023/10/08 06:44:02;;;;;;;3.55;2.60;;;;;;;8.75;100.00;102354.00;4952816;28;20283;-45
2023/10/08 06:46:32;;;;;;;3.47;2.55;;;;;;;9.11;100.00;102371.53;4952839;29;20190;-41
2023/10/08 06:49:03;;;;;;;7.13;2.55;;;;;;;9.26;100.00;102368.75;4953014;28;20178;-43
2023/10/08 06:51:30;;;;;;;9.93;2.78;;;;;;;9.68;100.00;102377.28;4934316;29;20195;-43
2023/10/08 06:53:56;;;;;;;4.43;1.80;;;;;;;9.63;100.00;102370.22;4947039;29;20220;-44
2023/10/08 06:56:23;;;;;;;3.78;2.00;;;;;;;9.85;100.00;102373.56;4956475;29;20187;-43
2023/10/08 06:58:52;;;;;;;4.60;1.83;;;;;;;10.35;100.00;102381.97;4956319;28;20625;-42
2023/10/08 07:01:21;;;;;;;2.25;1.48;;;;;;;10.29;100.00;102372.22;4956498;29;20246;-44
2023/10/08 07:03:49;;;;;;;2.53;1.55;;;;;;;10.52;100.00;102371.94;4956111;28;20202;-44
2023/10/08 07:06:25;;;;;;;3.15;1.75;;;;;;;10.90;100.00;102375.84;4956420;28;20183;-44
2023/10/08 07:08:55;;;;;;;7.15;1.70;;;;;;;11.19;100.00;102372.72;4956082;28;20665;-46
2023/10/08 07:11:22;;;;;;;4.13;1.63;;;;;;;10.90;100.00;102375.84;4955913;28;20560;-47
2023/10/08 07:13:48;;;;;;;6.68;1.60;;;;;;;10.91;100.00;102377.63;4956338;28;20281;-45
2023/10/08 07:16:17;;;;;;;7.47;1.85;;;;;;;10.96;100.00;102377.59;4955866;28;20189;-44
2023/10/08 07:18:54;;;;;;;5.03;1.92;;;;;;;10.69;100.00;102372.59;4954660;29;20198;-44
2023/10/08 07:21:28;;;;;;;4.38;1.90;;;;;;;11.30;100.00;102385.97;4955625;28;20178;-45
2023/10/08 07:23:58;;;;;;;5.35;1.73;;;;;;;11.44;100.00;102381.25;4955480;28;20213;-46
2023/10/08 07:26:25;;;;;;;5.10;1.67;;;;;;;11.59;100.00;102379.22;4955643;28;20178;-43
2023/10/08 07:28:54;;;;;;;3.88;2.03;;;;;;;11.92;100.00;102393.88;4955575;28;20179;-45
2023/10/08 07:31:23;;;;;;;5.15;1.80;;;;;;;11.91;100.00;102384.91;4954043;29;20318;-45
2023/10/08 07:33:56;;;;;;;4.03;1.95;;;;;;;11.65;100.00;102388.03;4953876;28;20195;-44
2023/10/08 07:36:26;;;;;;;7.25;1.70;;;;;;;11.58;100.00;102388.19;4954994;28;20192;-44
2023/10/08 07:38:53;;;;;;;6.28;1.42;;;;;;;11.57;100.00;102395.38;4955023;28;20182;-45
2023/10/08 07:41:20;;;;;;;7.78;1.95;;;;;;;11.50;100.00;102396.38;4954106;28;20207;-43
2023/10/08 07:43:55;;;;;;;4.60;1.52;;;;;;;11.40;100.00;102403.69;4955109;28;20232;-44
2023/10/08 07:46:27;;;;;;;4.63;1.48;;;;;;;11.30;100.00;102402.97;4954854;28;20186;-41
2023/10/08 07:48:58;;;;;;;4.30;1.65;;;;;;;11.10;100.00;102408.63;4953166;29;20182;-43
2023/10/08 07:51:24;;;;;;;3.97;1.52;;;;;;;11.12;100.00;102409.50;4952749;29;20209;-43
2023/10/08 07:53:55;;;;;;;3.92;1.73;;;;;;;11.09;100.00;102408.66;4954904;28;20225;-43
2023/10/08 07:56:24;;;;;;;3.17;1.50;;;;;;;11.06;100.00;102414.97;4951470;28;20175;-43
2023/10/08 07:58:51;;;;;;;2.88;1.20;;;;;;;11.04;100.00;102416.78;4952645;29;20619;-43
2023/10/08 08:01:17;;;;;;;3.45;1.15;;;;;;;11.00;100.00;102417.72;4953654;28;20187;-44
2023/10/08 08:03:44;;;;;;;5.63;1.50;;;;;;;11.13;100.00;102427.38;4951543;28;20293;-45
2023/10/08 08:06:10;;;;;;;4.53;1.42;;;;;;;11.34;100.00;102419.88;4954917;28;20186;-43
2023/10/08 08:08:37;;;;;;;4.50;1.40;;;;;;;11.30;100.00;102424.44;4954505;28;20265;-42
2023/10/08 08:11:12;;;;;;;2.97;1.30;;;;;;;11.60;100.00;102432.00;4951919;28;20229;-44
2023/10/08 08:13:39;;;;;;;3.90;1.10;;;;;;;11.91;100.00;102440.44;4954206;28;20198;-47
2023/10/08 08:16:17;;;;;;;3.90;1.40;;;;;;;11.68;100.00;102425.59;4954394;28;20195;-42
2023/10/08 08:18:43;;;;;;;2.55;1.50;;;;;;;12.06;100.00;102426.72;4947669;28;20222;-44
2023/10/08 08:21:15;;;;;;;2.25;0.90;;;;;;;11.66;100.00;102418.50;4952716;28;20187;-42
2023/10/08 08:23:50;;;;;;;3.30;1.15;;;;;;;11.84;100.00;102426.22;4954278;28;20211;-44
2023/10/08 08:26:27;;;;;;;4.68;1.48;;;;;;;11.65;100.00;102428.31;4952828;29;20178;-43
2023/10/08 08:28:56;;;;;;;4.18;1.02;;;;;;;11.51;100.00;102433.03;4954326;28;20281;-45
2023/10/08 08:31:23;;;;;;;4.13;1.25;;;;;;;11.47;100.00;102434.00;4953268;29;20559;-44
2023/10/08 08:33:52;;;;;;;2.35;0.57;;;;;;;11.52;100.00;102435.72;4950560;28;20198;-45
2023/10/08 08:36:19;;;;;;;3.70;0.98;;;;;;;11.48;100.00;102438.47;4952768;28;20642;-42
2023/10/08 08:38:45;;;;;;;4.40;1.27;;;;;;;11.51;100.00;102446.47;4953866;28;20179;-44
2023/10/08 08:41:12;;;;;;;2.60;0.88;;;;;;;11.38;100.00;102447.56;4951109;28;20652;-41
2023/10/08 08:43:44;;;;;;;4.10;1.33;;;;;;;11.31;100.00;102452.16;4951926;28;20666;-47
2023/10/08 08:46:12;;;;;;;3.88;1.20;;;;;;;12.03;100.00;102450.97;4951790;29;20328;-42
2023/10/08 08:48:44;;;;;;;2.40;1.15;;;;;;;12.22;100.00;102458.69;4953654;29;20473;-44
2023/10/08 08:51:10;;;;;;;1.98;1.00;;;;;;;12.58;99.63;102451.69;4953655;28;20195;-43
2023/10/08 08:53:37;;;;;;;2.17;1.10;;;;;;;12.89;94.98;102445.66;4950150;28;20210;-43
2023/10/08 08:56:06;;;;;;;2.80;1.02;;;;;;;12.99;91.86;102431.09;4953765;28;20190;-46
2023/10/08 08:58:36;;;;;;;1.92;1.00;;;;;;;12.89;88.65;102418.75;4953182;28;20615;-44
2023/10/08 09:01:05;;;;;;;1.25;0.90;;;;;;;12.77;86.02;102411.88;4953411;28;20234;-46
2023/10/08 09:03:31;;;;;;;1.77;0.90;;;;;;;12.51;83.72;102413.31;4950271;28;20202;-43
2023/10/08 09:05:58;;;;;;;2.40;1.25;;;;;;;12.57;82.41;102401.50;4952365;28;20198;-43
2023/10/08 09:08:36;;;;;;;1.40;0.80;;;;;;;12.52;80.99;102398.94;4952491;29;20177;-46
2023/10/08 09:11:04;;;;;;;3.05;0.82;;;;;;;12.42;79.96;102385.72;4946857;29;20626;-47
2023/10/08 09:13:32;;;;;;;2.60;0.80;;;;;;;12.52;80.93;102408.81;4953044;28;20319;-44
2023/10/08 09:16:08;;;;;;;2.78;1.00;;;;;;;12.37;79.63;102404.63;4950574;28;20210;-46
2023/10/08 09:18:34;;;;;;;2.92;0.70;;;;;;;12.56;79.02;102407.81;4952941;28;20190;-43
2023/10/08 09:21:21;;;;;;;1.90;0.80;;;;;;;12.37;78.26;102388.50;4951548;28;20174;-42
2023/10/08 09:23:51;;;;;;;0.63;0.63;;;;;;;12.67;77.58;102395.03;4951245;28;20273;-45
2023/10/08 09:26:18;;;;;;;1.50;0.80;;;;;;;12.67;75.55;102384.28;4952749;29;20193;-43
2023/10/08 09:28:47;;;;;;;3.83;1.02;;;;;;;12.77;74.71;102393.91;4953359;28;20265;-46
2023/10/08 09:31:13;;;;;;;1.90;0.55;;;;;;;12.65;73.79;102398.69;4950604;28;20473;-44
2023/10/08 09:33:40;;;;;;;0.52;0.50;;;;;;;12.56;72.29;102384.50;4949972;28;20298;-45
2023/10/08 09:36:10;;;;;;;3.05;0.50;;;;;;;12.98;72.70;102388.97;4951008;28;20182;-47
2023/10/08 09:38:37;;;;;;;2.55;0.77;;;;;;;13.22;72.33;102400.06;4948404;28;20558;-47
2023/10/08 09:41:03;;;;;;;4.05;0.70;;;;;;;13.14;71.37;102389.47;4951928;28;20642;-43
2023/10/08 09:43:30;;;;;;;2.25;0.63;;;;;;;13.08;71.20;102382.44;4948397;28;20211;-44
2023/10/08 09:46:19;;;;;;;5.50;1.52;;;;;;;12.92;71.55;102386.41;4950615;29;20296;-43
2023/10/08 09:48:51;;;;;;;1.00;0.85;;;;;;;12.62;71.62;102388.00;4951621;28;20241;-46
2023/10/08 09:51:17;;;;;;;1.35;0.50;;;;;;;12.42;71.74;102399.16;4952772;28;20202;-45
2023/10/08 09:53:53;;;;;;;1.02;0.82;;;;;;;12.95;70.83;102375.59;4952411;28;20207;-48
2023/10/08 09:56:20;;;;;;;2.75;0.80;;;;;;;12.97;69.90;102374.63;4951741;29;20178;-46
2023/10/08 09:58:49;;;;;;;0.93;0.55;;;;;;;12.71;69.17;102368.97;4952708;28;20190;-47
2023/10/08 10:01:16;;;;;;;2.03;0.80;;;;;;;12.72;68.21;102379.66;4951226;28;20219;-47
2023/10/08 10:03:43;;;;;;;4.10;0.70;;;;;;;12.72;68.31;102374.28;4947195;28;20210;-48
2023/10/08 10:06:14;;;;;;;1.10;0.65;;;;;;;12.90;68.15;102372.09;4948087;29;20221;-48
2023/10/08 10:08:42;;;;;;;1.63;0.60;;;;;;;12.72;68.65;102376.97;4944715;28;20274;-49
2023/10/08 10:11:08;;;;;;;2.22;0.60;;;;;;;12.65;68.56;102372.66;4948961;29;20215;-47
2023/10/08 10:13:39;;;;;;;3.10;0.60;;;;;;;12.79;68.69;102375.06;4944041;28;20915;-51
2023/10/08 10:16:07;;;;;;;3.67;0.52;;;;;;;12.80;69.57;102398.34;4945559;29;20281;-47
2023/10/08 10:18:33;;;;;;;2.30;0.60;;;;;;;12.41;70.59;102409.03;4945884;28;20266;-50
2023/10/08 10:21:12;;;;;;;1.88;0.90;;;;;;;12.44;70.86;102418.81;4944748;28;20206;-49
2023/10/08 10:23:43;;;;;;;1.70;0.63;;;;;;;12.38;70.83;102417.16;4940424;28;20210;-48
2023/10/08 10:26:33;;;;;;;1.20;0.80;;;;;;;12.67;70.96;102430.00;4947424;28;20190;-48
2023/10/08 10:29:11;;;;;;;1.35;0.70;;;;;;;12.41;68.92;102411.72;4949451;29;20186;-47
2023/10/08 10:31:56;;;;;;;1.55;0.80;;;;;;;12.49;67.68;102393.63;4946192;29;20212;-46
2023/10/08 10:34:27;;;;;;;3.40;0.68;;;;;;;12.63;68.49;102412.16;4950086;28;20306;-51
2023/10/08 10:37:08;;;;;;;0.65;0.60;;;;;;;12.74;68.89;102425.38;4948512;28;20187;-48
2023/10/08 10:39:39;;;;;;;1.05;0.52;;;;;;;12.59;67.11;102407.75;4949584;29;20558;-54
2023/10/08 10:42:20;;;;;;;0.52;0.52;;;;;;;12.56;67.34;102402.44;4948240;29;20187;-48
2023/10/08 10:44:49;;;;;;;1.55;0.52;;;;;;;12.66;68.67;102417.47;4948638;29;20195;-48
2023/10/08 10:52:51;;;;;;;1.70;0.70;;;;;;;12.25;68.89;102415.66;4939286;28;20238;-46
2023/10/08 10:55:20;;;;;;;3.13;0.90;;;;;;;12.28;69.42;102411.06;4950967;28;20612;-46
2023/10/08 10:58:04;;;;;;;1.17;0.73;;;;;;;12.25;69.81;102403.09;4946350;29;20709;-48
2023/10/08 11:03:02;;;;;;;2.63;0.77;;;;;;;12.48;69.13;102388.28;4948233;28;20278;-47
2023/10/08 11:05:29;;;;;;;3.47;0.70;;;;;;;12.57;68.13;102378.22;4949490;29;20191;-46
2023/10/08 11:08:06;;;;;;;2.58;1.00;;;;;;;12.48;67.72;102377.53;4947770;29;20223;-47
2023/10/08 11:10:33;;;;;;;1.85;0.40;;;;;;;12.21;66.88;102361.06;4952428;29;20194;-46
2023/10/08 11:13:02;;;;;;;1.35;0.73;;;;;;;12.29;68.39;102366.28;4948523;28;20202;-50
2023/10/08 11:15:40;;;;;;;2.55;0.70;;;;;;;12.33;69.01;102368.88;4943643;28;20671;-48
2023/10/08 11:18:15;;;;;;;1.33;0.70;;;;;;;12.43;68.77;102368.69;4947556;28;20182;-50
2023/10/08 11:20:40;;;;;;;1.95;0.80;;;;;;;12.64;68.56;102356.56;4946938;29;20191;-48
2023/10/08 11:23:18;;;;;;;0.88;0.57;;;;;;;12.73;68.39;102356.38;4947553;28;20215;-47
2023/10/08 11:26:06;;;;;;;1.17;0.70;;;;;;;12.74;68.01;102350.94;4943545;29;20535;-49
2023/10/08 11:28:35;;;;;;;2.53;0.73;;;;;;;12.89;68.16;102367.66;4945470;29;20234;-47
2023/10/08 11:31:08;;;;;;;0.80;0.60;;;;;;;12.83;68.07;102365.09;4949375;29;20207;-46
2023/10/08 11:33:56;;;;;;;2.28;0.80;;;;;;;12.44;68.18;102365.97;4945051;29;20214;-45
2023/10/08 11:36:29;;;;;;;1.63;0.75;;;;;;;12.39;67.93;102358.91;4947011;29;20550;-46
2023/10/08 11:39:06;;;;;;;1.63;0.60;;;;;;;12.45;67.86;102364.16;4944093;29;20218;-46
2023/10/08 11:41:35;;;;;;;3.22;0.65;;;;;;;12.56;68.07;102359.44;4944909;29;20215;-46
2023/10/08 11:44:03;;;;;;;3.30;0.70;;;;;;;12.58;68.32;102377.28;4947320;28;20292;-46
2023/10/08 11:46:40;;;;;;;4.35;0.77;;;;;;;12.67;66.64;102356.50;4947807;28;20197;-46
2023/10/08 11:49:07;;;;;;;1.63;0.50;;;;;;;12.84;66.36;102365.06;4943974;29;20183;-48
2023/10/08 11:51:34;;;;;;;0.45;0.40;;;;;;;12.95;66.20;102359.44;4945586;29;20219;-48
2023/10/08 11:54:05;;;;;;;1.85;0.50;;;;;;;12.90;66.46;102348.81;4946761;29;20223;-48
2023/10/08 11:56:33;;;;;;;0.98;0.45;;;;;;;13.16;66.54;102353.56;4944299;28;20191;-45
2023/10/08 11:59:05;;;;;;;2.45;0.88;;;;;;;13.36;65.37;102339.63;4945650;29;20197;-48
2023/10/08 12:01:35;;;;;;;1.20;0.70;;;;;;;13.43;64.33;102329.56;4944810;29;20349;-50
2023/10/08 12:04:01;;;;;;;0.75;0.57;;;;;;;13.52;63.20;102302.41;4947402;29;20590;-46
2023/10/08 12:06:29;;;;;;;4.47;1.00;;;;;;;13.60;62.02;102288.75;4949177;28;20194;-46
2023/10/08 12:08:58;;;;;;;1.65;0.77;;;;;;;13.51;61.49;102289.88;4943008;29;20570;-46
2023/10/08 12:11:30;;;;;;;2.45;0.68;;;;;;;13.82;61.96;102291.72;4945036;29;20685;-47
2023/10/08 12:13:58;;;;;;;1.95;0.73;;;;;;;13.56;62.56;102287.94;4948086;28;20242;-46
2023/10/08 12:16:26;;;;;;;2.55;0.70;;;;;;;13.31;62.29;102284.13;4944688;29;20591;-47
2023/10/08 12:18:58;;;;;;;0.65;0.40;;;;;;;13.51;63.21;102291.66;4942880;29;20281;-45
2023/10/08 12:21:25;;;;;;;2.85;0.57;;;;;;;13.58;62.80;102288.78;4943034;29;20266;-50
2023/10/08 12:23:51;;;;;;;1.45;0.50;;;;;;;13.29;63.32;102300.31;4948057;28;20218;-48
2023/10/08 12:26:18;;;;;;;1.35;0.70;;;;;;;13.33;63.90;102307.38;4947311;29;20187;-47
2023/10/08 12:28:46;;;;;;;2.15;0.68;;;;;;;13.16;63.74;102307.81;4945625;29;20664;-47
2023/10/08 12:31:13;;;;;;;0.57;0.50;;;;;;;13.35;63.45;102307.34;4947762;28;20572;-46
2023/10/08 12:33:40;;;;;;;1.02;0.65;;;;;;;13.22;63.37;102309.44;4945651;28;20215;-46
2023/10/08 12:36:12;;;;;;;1.42;0.68;;;;;;;13.19;63.19;102313.09;4945316;28;20679;-47
2023/10/08 12:38:40;;;;;;;4.25;0.82;;;;;;;13.24;63.43;102317.47;4949374;28;20344;-46
2023/10/08 12:41:13;;;;;;;0.90;0.60;;;;;;;13.29;62.87;102316.47;4945118;28;20189;-49
2023/10/08 12:43:45;;;;;;;0.50;0.50;;;;;;;12.97;64.43;102333.41;4947299;28;20223;-45